Anchorena, Argentina
Current Conditions -  °F | °C
As of 6:00 AM on Sunday 21 Dec 2014 (Local Time) from SAOC Reporting Station
Broken Clouds Broken Clouds  
Wind Chill: 13°   Ceiling: 10000
Heat Index: 13°   Visibility: 6mi
Dew Point:   Wind: 12mph
Humidity: 67%   Direction: 230°SW
Pressure: 29.88"   Gusts: NA
Location:  35.7°S, 65.37°W
Report Text: SAOC 210900Z 23010KT 9999 FEW040 BKN10013/07 Q1012
Loading
Personal Weather Stations






























Interactive Weather Map New forecast layout! Learn more

10-Day Weather Forecast

Advertisements
Track Severe Weather on mobile